createdAt,value
2019-02-03T00:02:20.741Z,2.33
2019-02-03T00:05:23.664Z,2.29
2019-02-03T00:08:26.897Z,2.27
2019-02-03T00:11:30.564Z,2.27
2019-02-03T00:14:33.936Z,2.32
2019-02-03T00:17:36.841Z,2.32
2019-02-03T00:20:40.390Z,2.37
2019-02-03T00:23:43.680Z,2.40
2019-02-03T00:26:47.343Z,2.47
2019-02-03T00:29:50.281Z,2.40
2019-02-03T00:32:53.207Z,2.45
2019-02-03T00:35:56.453Z,2.38
2019-02-03T00:38:59.856Z,2.24
2019-02-03T00:42:03.207Z,2.36
2019-02-03T00:45:10.135Z,2.45
2019-02-03T00:48:14.127Z,2.38
2019-02-03T00:51:17.055Z,2.36
2019-02-03T00:54:19.983Z,2.33
2019-02-03T00:57:24.756Z,2.33
2019-02-03T01:00:27.680Z,2.40
2019-02-03T01:03:30.914Z,2.33
2019-02-03T01:06:33.860Z,2.42
2019-02-03T01:09:36.835Z,2.40
2019-02-03T01:12:40.455Z,2.27
2019-02-03T01:15:43.676Z,2.35
2019-02-03T01:18:47.853Z,2.36
2019-02-03T01:21:51.092Z,2.35
2019-02-03T01:24:54.414Z,2.30
2019-02-03T01:27:58.002Z,2.31
2019-02-03T01:31:01.086Z,2.30
2019-02-03T01:34:04.024Z,2.24
2019-02-03T01:37:07.317Z,2.33
2019-02-03T01:40:14.073Z,2.34
2019-02-03T01:43:17.269Z,2.33
2019-02-03T01:46:20.552Z,2.33
2019-02-03T01:49:24.244Z,2.37
2019-02-03T01:52:27.734Z,2.30
2019-02-03T01:55:31.054Z,2.35
2019-02-03T01:58:34.352Z,2.33
2019-02-03T02:01:37.276Z,2.27
2019-02-03T02:04:41.209Z,2.32
2019-02-03T02:07:51.834Z,2.28
2019-02-03T02:10:49.625Z,2.34
2019-02-03T02:13:52.552Z,2.27
2019-02-03T02:16:56.192Z,2.26
2019-02-03T02:19:59.107Z,2.21
2019-02-03T02:23:02.364Z,2.25
2019-02-03T02:26:05.401Z,2.17
2019-02-03T02:29:08.615Z,2.17
2019-02-03T02:32:11.569Z,2.19
2019-02-03T02:35:14.491Z,2.21
2019-02-03T02:38:17.683Z,2.19
2019-02-03T02:41:20.960Z,2.22
2019-02-03T02:44:24.838Z,2.22
2019-02-03T02:47:27.803Z,2.14
2019-02-03T02:50:37.551Z,2.23
2019-02-03T02:53:40.818Z,2.20
2019-02-03T02:56:43.849Z,2.29
2019-02-03T02:59:47.429Z,2.29
2019-02-03T03:02:50.391Z,2.24
2019-02-03T03:05:53.306Z,2.29
2019-02-03T03:08:56.268Z,2.24
2019-02-03T03:11:59.728Z,2.34
2019-02-03T03:15:04.168Z,2.35
2019-02-03T03:18:07.249Z,2.29
2019-02-03T03:21:10.743Z,2.25
2019-02-03T03:24:14.018Z,2.17
2019-02-03T03:27:17.049Z,2.23
2019-02-03T03:30:23.577Z,2.27
2019-02-03T03:33:27.067Z,2.29
2019-02-03T03:36:29.991Z,2.35
2019-02-03T03:39:33.223Z,2.28
2019-02-03T03:42:36.415Z,2.29
2019-02-03T03:45:41.003Z,2.32
2019-02-03T03:48:43.899Z,2.17
2019-02-03T03:51:47.379Z,2.23
2019-02-03T03:54:50.623Z,2.32
2019-02-03T03:57:53.872Z,2.25
2019-02-03T04:00:56.793Z,2.18
2019-02-03T04:03:59.724Z,2.24
2019-02-03T04:07:02.741Z,2.27
2019-02-03T04:10:08.163Z,2.26
2019-02-03T04:13:11.061Z,2.23
2019-02-03T04:16:13.987Z,2.20
2019-02-03T04:19:17.238Z,2.15
2019-02-03T04:22:20.456Z,2.21
2019-02-03T04:25:23.687Z,2.19
2019-02-03T04:28:27.219Z,2.22
2019-02-03T04:31:30.424Z,2.26
2019-02-03T04:34:34.063Z,2.27
2019-02-03T04:37:38.198Z,2.32
2019-02-03T04:40:41.140Z,2.24
2019-02-03T04:43:44.050Z,2.25
2019-02-03T04:46:47.705Z,2.16
2019-02-03T04:49:51.173Z,2.21
2019-02-03T04:52:54.408Z,2.16
2019-02-03T04:55:58.408Z,2.18
2019-02-03T04:59:01.699Z,2.29
2019-02-03T05:02:04.921Z,2.24
2019-02-03T05:05:09.662Z,2.22
2019-02-03T05:08:12.572Z,2.24
2019-02-03T05:11:15.782Z,2.23
2019-02-03T05:14:19.109Z,2.22
2019-02-03T05:17:22.306Z,2.26
2019-02-03T05:20:26.730Z,2.25
2019-02-03T05:23:30.010Z,2.25
2019-02-03T05:26:33.550Z,2.26
2019-02-03T05:29:36.475Z,2.21
2019-02-03T05:32:39.412Z,2.21
2019-02-03T05:35:42.327Z,2.23
2019-02-03T05:38:45.255Z,2.24
2019-02-03T05:41:48.197Z,2.23
2019-02-03T05:44:51.440Z,2.27
2019-02-03T05:47:55.056Z,2.21
2019-02-03T05:50:58.330Z,2.18
2019-02-03T05:54:01.260Z,2.27
2019-02-03T05:57:05.021Z,2.30
2019-02-03T06:00:12.286Z,2.24
2019-02-03T06:03:16.447Z,2.25
2019-02-03T06:06:19.373Z,2.28
2019-02-03T06:09:22.310Z,2.24
2019-02-03T06:12:25.672Z,2.25
2019-02-03T06:15:28.603Z,2.16
2019-02-03T06:18:31.894Z,2.18
2019-02-03T06:21:35.536Z,2.07
2019-02-03T06:24:38.439Z,2.08
2019-02-03T06:27:41.906Z,2.16
2019-02-03T06:31:09.140Z,2.11
2019-02-03T06:34:12.421Z,2.13
2019-02-03T06:37:15.365Z,2.16
2019-02-03T06:40:18.596Z,2.05
2019-02-03T06:43:22.056Z,2.07
2019-02-03T06:46:43.267Z,2.16
2019-02-03T06:49:47.267Z,2.10
2019-02-03T06:52:50.180Z,2.12
2019-02-03T06:55:53.362Z,2.17
2019-02-03T06:58:57.063Z,2.13
2019-02-03T07:02:00.616Z,2.12
2019-02-03T07:05:04.726Z,2.13
2019-02-03T07:08:07.908Z,2.00
2019-02-03T07:11:10.930Z,2.11
2019-02-03T07:14:13.896Z,2.12
2019-02-03T07:17:17.407Z,2.07
2019-02-03T07:20:20.335Z,2.11
2019-02-03T07:23:23.689Z,2.08
2019-02-03T07:26:26.608Z,2.12
2019-02-03T07:29:29.571Z,2.06
2019-02-03T07:32:32.802Z,2.09
2019-02-03T07:35:36.051Z,1.95
2019-02-03T07:38:41.043Z,2.06
2019-02-03T07:41:44.915Z,1.98
2019-02-03T07:44:48.593Z,2.09
2019-02-03T07:47:51.809Z,1.86
2019-02-03T07:50:55.081Z,1.97
2019-02-03T07:54:08.056Z,2.07
2019-02-03T07:57:03.202Z,2.08
2019-02-03T08:00:06.560Z,2.07
2019-02-03T08:03:10.232Z,2.06
2019-02-03T08:06:13.883Z,2.12
2019-02-03T08:09:16.831Z,2.16
2019-02-03T08:12:20.136Z,2.10
2019-02-03T08:15:23.080Z,2.12
2019-02-03T08:18:26.303Z,2.24
2019-02-03T08:21:30.355Z,2.20
2019-02-03T08:24:33.660Z,2.16
2019-02-03T08:27:36.596Z,2.09
2019-02-03T08:30:40.226Z,2.16
2019-02-03T08:33:43.427Z,2.20
2019-02-03T08:36:47.007Z,2.18
2019-02-03T08:39:50.220Z,2.12
2019-02-03T08:42:55.788Z,2.14
2019-02-03T08:45:58.329Z,2.12
2019-02-03T08:49:01.497Z,2.21
2019-02-03T08:52:04.795Z,2.21
2019-02-03T08:55:08.804Z,2.28
2019-02-03T08:58:12.030Z,2.38
2019-02-03T09:01:15.889Z,2.30
2019-02-03T09:04:19.305Z,2.90
2019-02-03T09:07:22.885Z,3.19
2019-02-03T09:10:25.886Z,2.57
2019-02-03T09:13:28.814Z,2.45
2019-02-03T09:16:31.749Z,2.38
2019-02-03T09:19:34.686Z,2.34
2019-02-03T09:22:40.034Z,2.38
2019-02-03T09:25:42.726Z,2.39
2019-02-03T09:28:45.983Z,2.43
2019-02-03T09:31:49.040Z,2.39
2019-02-03T09:34:52.287Z,2.41
2019-02-03T09:37:56.304Z,2.48
2019-02-03T09:41:00.485Z,2.44
2019-02-03T09:44:03.988Z,2.46
2019-02-03T09:47:08.635Z,2.49
2019-02-03T09:50:18.377Z,2.49
2019-02-03T09:53:21.299Z,2.43
2019-02-03T09:56:25.086Z,2.52
2019-02-03T09:59:28.352Z,2.58
2019-02-03T10:02:31.737Z,2.63
2019-02-03T10:05:37.323Z,2.69
2019-02-03T10:08:41.192Z,2.80
2019-02-03T10:11:44.154Z,2.96
2019-02-03T10:14:47.772Z,2.94
2019-02-03T10:17:51.074Z,2.99
2019-02-03T10:20:54.318Z,3.29
2019-02-03T10:23:57.235Z,12.90
2019-02-03T10:27:00.149Z,12.68
2019-02-03T10:30:04.416Z,10.50
2019-02-03T10:33:08.347Z,6.97
2019-02-03T10:36:11.357Z,5.41
2019-02-03T10:39:14.688Z,4.99
2019-02-03T10:42:17.919Z,4.66
2019-02-03T10:45:22.890Z,4.42
2019-02-03T10:48:26.104Z,4.07
2019-02-03T10:51:29.402Z,4.10
2019-02-03T10:54:32.616Z,3.92
2019-02-03T10:57:36.049Z,3.81
2019-02-03T11:00:40.133Z,3.68
2019-02-03T11:03:43.735Z,3.70
2019-02-03T11:06:47.141Z,3.59
2019-02-03T11:09:59.118Z,3.68
2019-02-03T11:13:02.491Z,3.64
2019-02-03T11:16:07.304Z,3.55
2019-02-03T11:19:10.351Z,3.63
2019-02-03T11:22:13.586Z,3.85
2019-02-03T11:25:18.114Z,3.87
2019-02-03T11:28:21.348Z,3.89
2019-02-03T11:31:24.979Z,3.93
2019-02-03T11:34:27.896Z,3.83
2019-02-03T11:37:30.831Z,3.87
2019-02-03T11:40:42.964Z,3.91
2019-02-03T11:43:45.902Z,3.86
2019-02-03T11:46:48.839Z,4.32
2019-02-03T11:49:52.340Z,4.23
2019-02-03T11:52:55.402Z,4.24
2019-02-03T11:55:58.693Z,4.14
2019-02-03T11:59:02.028Z,4.10
2019-02-03T12:02:05.560Z,4.12
2019-02-03T12:05:09.112Z,4.37
2019-02-03T12:08:12.452Z,4.90
2019-02-03T12:11:15.699Z,4.46
2019-02-03T12:14:18.911Z,4.20
2019-02-03T12:17:22.267Z,4.11
2019-02-03T12:20:25.281Z,4.09
2019-02-03T12:23:28.577Z,4.19
2019-02-03T12:26:32.674Z,4.16
2019-02-03T12:29:36.782Z,10.77
2019-02-03T12:32:39.946Z,6.38
2019-02-03T12:35:42.873Z,5.18
2019-02-03T12:38:45.809Z,4.58
2019-02-03T12:41:49.022Z,4.42
2019-02-03T12:44:51.951Z,4.23
2019-02-03T12:47:54.955Z,4.22
2019-02-03T12:50:58.531Z,4.26
2019-02-03T12:54:01.856Z,4.25
2019-02-03T12:57:06.168Z,4.23
2019-02-03T13:00:18.945Z,4.20
2019-02-03T13:03:25.118Z,4.20
2019-02-03T13:06:26.960Z,4.22
2019-02-03T13:09:29.899Z,4.24
2019-02-03T13:12:33.189Z,4.28
2019-02-03T13:15:49.100Z,4.41
2019-02-03T13:18:52.376Z,4.44
2019-02-03T13:21:58.414Z,4.43
2019-02-03T13:25:00.845Z,4.41
2019-02-03T13:28:05.226Z,4.50
2019-02-03T13:31:09.127Z,4.41
2019-02-03T13:34:12.519Z,4.41
2019-02-03T13:37:15.421Z,4.52
2019-02-03T13:40:18.923Z,4.44
2019-02-03T13:43:22.184Z,4.47
2019-02-03T13:46:25.390Z,4.49
2019-02-03T13:49:28.308Z,4.46
2019-02-03T13:52:31.238Z,4.60
2019-02-03T13:55:34.487Z,4.50
2019-02-03T13:58:37.687Z,4.47
2019-02-03T14:01:40.617Z,4.50
2019-02-03T14:04:43.571Z,4.53
2019-02-03T14:07:46.773Z,4.53
2019-02-03T14:10:50.012Z,4.41
2019-02-03T14:13:53.159Z,4.36
2019-02-03T14:16:56.490Z,4.31
2019-02-03T14:19:59.821Z,4.37
2019-02-03T14:23:03.608Z,4.41
2019-02-03T14:26:06.839Z,4.26
2019-02-03T14:29:09.780Z,4.34
2019-02-03T14:32:12.684Z,4.26
2019-02-03T14:35:15.930Z,4.19
2019-02-03T14:38:18.837Z,4.24
2019-02-03T14:41:21.764Z,4.21
2019-02-03T14:44:25.048Z,4.20
2019-02-03T14:47:28.334Z,4.23
2019-02-03T14:50:31.949Z,4.23
2019-02-03T14:53:35.546Z,4.22
2019-02-03T14:56:38.472Z,4.15
2019-02-03T14:59:41.663Z,4.20
2019-02-03T15:02:44.917Z,4.16
2019-02-03T15:05:48.226Z,4.13
2019-02-03T15:08:51.410Z,4.22
2019-02-03T15:11:54.720Z,4.20
2019-02-03T15:14:57.634Z,4.25
2019-02-03T15:18:00.599Z,4.23
2019-02-03T15:21:04.592Z,4.17
2019-02-03T15:24:15.993Z,4.18
2019-02-03T15:27:14.072Z,4.23
2019-02-03T15:30:21.347Z,4.18
2019-02-03T15:33:25.041Z,4.18
2019-02-03T15:36:27.989Z,4.25
2019-02-03T15:39:30.898Z,4.19
2019-02-03T15:42:34.109Z,4.15
2019-02-03T15:45:37.332Z,4.15
2019-02-03T15:48:40.889Z,4.17
2019-02-03T15:51:44.210Z,4.54
2019-02-03T15:54:47.510Z,4.65
2019-02-03T15:57:51.742Z,4.36
2019-02-03T16:00:54.997Z,4.16
2019-02-03T16:03:58.308Z,4.17
2019-02-03T16:07:01.533Z,4.03
2019-02-03T16:10:06.039Z,4.03
2019-02-03T16:13:09.836Z,4.14
2019-02-03T16:16:13.166Z,4.10
2019-02-03T16:19:16.406Z,3.99
2019-02-03T16:22:19.344Z,4.06
2019-02-03T16:25:22.927Z,4.06
2019-02-03T16:28:25.875Z,4.07
2019-02-03T16:31:28.805Z,4.11
2019-02-03T16:34:32.160Z,3.95
2019-02-03T16:37:35.211Z,3.92
2019-02-03T16:40:38.440Z,3.75
2019-02-03T16:43:48.718Z,3.69
2019-02-03T16:46:46.503Z,3.56
2019-02-03T16:49:49.464Z,3.51
2019-02-03T16:52:53.295Z,3.41
2019-02-03T16:55:56.208Z,3.37
2019-02-03T16:58:59.523Z,3.28
2019-02-03T17:02:02.563Z,3.20
2019-02-03T17:05:09.961Z,3.21
2019-02-03T17:08:14.132Z,3.18
2019-02-03T17:11:17.372Z,3.15
2019-02-03T17:14:20.345Z,3.03
2019-02-03T17:17:24.107Z,2.98
2019-02-03T17:20:27.293Z,2.92
2019-02-03T17:23:32.083Z,2.91
2019-02-03T17:26:35.297Z,2.85
2019-02-03T17:29:38.557Z,2.82
2019-02-03T17:32:41.468Z,2.77
2019-02-03T17:35:53.894Z,2.71
2019-02-03T17:38:50.687Z,2.61
2019-02-03T17:41:53.735Z,2.63
2019-02-03T17:44:56.771Z,2.60
2019-02-03T17:47:59.797Z,2.50
2019-02-03T17:51:02.875Z,2.55
2019-02-03T17:54:06.109Z,2.60
2019-02-03T17:57:09.491Z,2.53
2019-02-03T18:00:17.629Z,2.58
2019-02-03T18:03:21.753Z,2.58
2019-02-03T18:06:25.209Z,2.58
2019-02-03T18:09:28.529Z,2.57
2019-02-03T18:12:31.806Z,2.61
2019-02-03T18:15:34.756Z,2.62
2019-02-03T18:18:37.753Z,2.59
2019-02-03T18:21:40.684Z,2.65
2019-02-03T18:24:43.689Z,2.73
2019-02-03T18:27:47.032Z,2.77
2019-02-03T18:30:49.964Z,2.68
2019-02-03T18:33:53.036Z,2.60
2019-02-03T18:36:56.237Z,2.54
2019-02-03T18:39:59.810Z,2.41
2019-02-03T18:43:03.375Z,2.42
2019-02-03T18:46:06.506Z,2.44
2019-02-03T18:49:09.540Z,3.18
2019-02-03T18:52:12.566Z,2.90
2019-02-03T18:55:18.954Z,2.53
2019-02-03T18:58:21.933Z,2.51
2019-02-03T19:01:25.313Z,2.39
2019-02-03T19:04:28.532Z,2.38
2019-02-03T19:07:31.939Z,2.28
2019-02-03T19:10:35.355Z,2.20
2019-02-03T19:13:38.392Z,2.34
2019-02-03T19:16:41.345Z,2.20
2019-02-03T19:19:44.581Z,2.18
2019-02-03T19:22:47.987Z,2.24
2019-02-03T19:25:51.216Z,2.31
2019-02-03T19:28:54.149Z,2.15
2019-02-03T19:31:57.383Z,2.09
2019-02-03T19:35:00.716Z,2.11
2019-02-03T19:38:06.782Z,2.19
2019-02-03T19:41:09.629Z,2.07
2019-02-03T19:44:12.577Z,2.33
2019-02-03T19:47:15.801Z,2.23
2019-02-03T19:50:25.732Z,2.07
2019-02-03T19:53:28.977Z,2.04
2019-02-03T19:56:31.997Z,2.09
2019-02-03T19:59:46.281Z,2.02
2019-02-03T20:02:40.467Z,2.14
2019-02-03T20:05:43.808Z,1.99
2019-02-03T20:08:47.089Z,1.98
2019-02-03T20:11:50.041Z,1.99
2019-02-03T20:14:53.356Z,1.94
2019-02-03T20:17:58.091Z,2.10
2019-02-03T20:21:01.894Z,1.98
2019-02-03T20:24:05.488Z,1.93
2019-02-03T20:27:09.096Z,1.85
2019-02-03T20:30:16.159Z,2.00
2019-02-03T20:33:19.105Z,1.98
2019-02-03T20:36:22.250Z,1.88
2019-02-03T20:39:25.864Z,1.90
2019-02-03T20:42:29.207Z,1.79
2019-02-03T20:45:36.033Z,1.77
2019-02-03T20:48:38.312Z,1.91
2019-02-03T20:51:41.634Z,1.83
2019-02-03T20:54:44.537Z,1.77
2019-02-03T20:57:47.494Z,1.72
2019-02-03T21:00:51.464Z,1.73
2019-02-03T21:03:54.397Z,1.87
2019-02-03T21:06:57.336Z,1.81
2019-02-03T21:10:00.565Z,1.84
2019-02-03T21:13:11.059Z,1.82
2019-02-03T21:16:09.693Z,1.74
2019-02-03T21:19:12.656Z,1.79
2019-02-03T21:22:15.603Z,1.63
2019-02-03T21:25:19.836Z,1.78
2019-02-03T21:28:23.064Z,1.98
2019-02-03T21:31:26.326Z,1.83
2019-02-03T21:34:29.630Z,1.75
2019-02-03T21:37:32.863Z,1.79
2019-02-03T21:40:36.194Z,2.71
2019-02-03T21:43:39.135Z,2.05
2019-02-03T21:46:42.108Z,1.61
2019-02-03T21:49:45.716Z,1.54
2019-02-03T21:52:48.696Z,1.62
2019-02-03T21:55:51.629Z,1.45
2019-02-03T21:58:54.341Z,1.43
2019-02-03T22:01:57.300Z,1.54
2019-02-03T22:05:00.216Z,1.46
2019-02-03T22:08:04.001Z,1.39
2019-02-03T22:11:07.901Z,1.50
2019-02-03T22:14:11.197Z,1.40
2019-02-03T22:17:14.155Z,1.31
2019-02-03T22:20:19.964Z,1.37
2019-02-03T22:23:23.294Z,1.41
2019-02-03T22:26:26.594Z,1.48
2019-02-03T22:29:30.163Z,1.58
2019-02-03T22:32:33.190Z,1.56
2019-02-03T22:35:36.787Z,1.68
2019-02-03T22:38:40.254Z,1.52
2019-02-03T22:41:43.583Z,1.81
2019-02-03T22:44:46.654Z,1.61
2019-02-03T22:47:49.985Z,1.64
2019-02-03T22:50:53.340Z,1.79
2019-02-03T22:53:56.250Z,1.73
2019-02-03T22:56:59.692Z,1.74
2019-02-03T23:00:11.746Z,1.60
2019-02-03T23:03:15.568Z,1.54
2019-02-03T23:06:18.525Z,1.54
2019-02-03T23:09:23.393Z,1.55
2019-02-03T23:12:26.830Z,1.77
2019-02-03T23:15:30.131Z,1.65
2019-02-03T23:18:33.072Z,1.65
2019-02-03T23:21:37.324Z,1.70
2019-02-03T23:24:40.821Z,1.52
2019-02-03T23:27:44.016Z,1.56
2019-02-03T23:30:47.255Z,1.59
2019-02-03T23:33:51.251Z,1.79
2019-02-03T23:36:54.277Z,1.55
2019-02-03T23:39:57.512Z,1.60
2019-02-03T23:43:00.801Z,1.75
2019-02-03T23:46:04.123Z,1.68
2019-02-03T23:49:07.389Z,1.59
2019-02-03T23:52:10.597Z,1.55
2019-02-03T23:55:13.927Z,1.54
2019-02-03T23:58:17.415Z,1.64
